Trenton, NJ (08601)

12:38 AM EST on February 11, 2016 (GMT -0500)
Morris Heights | | Change Station
CLOSE
Current Station
Personal Weather Station
Location: Morrisville, PA
Elevation: 89 ft
Nearby Weather Stations

Elev 89 ft 40.22 °N, 74.78 °W | Updated 9 seconds ago

Overcast
Overcast
27.2 °F
Feels Like 21 °F
N
5.4
Wind Variable Wind from NW
Gusts 5.4 mph

Today
High -- | Low -- °F
--% Chance of Precip.
Yesterday
High -- | Low -- °F
Precip. -- in
Pressure 29.79 in
Visibility 10.0 miles
Clouds Few 8000 ft
Overcast 9500 ft
Windchill 21 °F
Dew Point 16 °F
Humidity 62%
Rainfall 0.00 in
Snow Depth Not available.
6:57 AM 5:29 PM
Waxing Crescent, 9% visible
METAR KTTN 110453Z 30009G20KT 10SM FEW080 OVC095 M03/M11 A2980 RMK AO2 SLP088 T10281106 400281028
Pressure 29.79 in
Visibility 10.0 miles
Clouds Few 8000 ft
Overcast 9500 ft
Windchill 21 °F
Dew Point 16 °F
Humidity 62%
Rainfall 0.00 in
Snow Depth Not available.
6:57 AM 5:29 PM
Waxing Crescent, 9% visible
METAR KTTN 110453Z 30009G20KT 10SM FEW080 OVC095 M03/M11 A2980 RMK AO2 SLP088 T10281106 400281028

10-Day Weather Forecast

Almanac

Astronomy

Feb. 11, 2016 Rise Set
Actual Time
Civil Twilight
Nautical Twilight
Astronomical Twilight
Moon
Length of Visible Light
Length of Day
Tomorrow will be .
, % of the Moon is Illuminated

Today's Extremes

State Highs State Lows

Community

WunderPhotos

Upload Photos

1,892,023 photos uploaded!

WunderBlog® & News

Nearby

Air Quality

  Air Quality AQ Index Pollutant
Not available.

Snow Depth

Station Depth Elevation

Earthquake Activity

City Distance Mag. Time & Date
Minimum magnitude displayed is 2.5.

Coastal Water Temperatures

Place Temperature

Stations

Nearby Weather Stations

Station Location Temp. Windchill Dew Point Humidity Wind Precip. Elev Updated Type
                   

Watches & Warnings

There are currently no watches in effect.